sensor_id;sensor_type;location;lat;lon;timestamp;temperature;humidity
79301;SHT31;68755;51.984;5.646;2023-04-24T00:00:17;12.9;72.0
79301;SHT31;68755;51.984;5.646;2023-04-24T00:02:47;12.9;72.1
79301;SHT31;68755;51.984;5.646;2023-04-24T00:05:17;12.9;72.2
79301;SHT31;68755;51.984;5.646;2023-04-24T00:07:47;12.9;72.1
79301;SHT31;68755;51.984;5.646;2023-04-24T00:10:20;12.9;72.2
79301;SHT31;68755;51.984;5.646;2023-04-24T00:12:49;12.9;72.2
79301;SHT31;68755;51.984;5.646;2023-04-24T00:15:19;12.9;72.0
79301;SHT31;68755;51.984;5.646;2023-04-24T00:17:48;12.9;71.9
79301;SHT31;68755;51.984;5.646;2023-04-24T00:20:19;12.9;71.9
79301;SHT31;68755;51.984;5.646;2023-04-24T00:22:50;12.9;71.8
79301;SHT31;68755;51.984;5.646;2023-04-24T00:25:19;12.8;72.0
79301;SHT31;68755;51.984;5.646;2023-04-24T00:27:49;12.8;72.1
79301;SHT31;68755;51.984;5.646;2023-04-24T00:30:18;12.8;71.9
79301;SHT31;68755;51.984;5.646;2023-04-24T00:32:48;12.8;72.1
79301;SHT31;68755;51.984;5.646;2023-04-24T00:35:18;12.8;72.0
79301;SHT31;68755;51.984;5.646;2023-04-24T00:37:48;12.8;71.9
79301;SHT31;68755;51.984;5.646;2023-04-24T00:40:17;12.8;71.8
79301;SHT31;68755;51.984;5.646;2023-04-24T00:42:47;12.8;71.9
79301;SHT31;68755;51.984;5.646;2023-04-24T00:45:17;12.8;72.4
79301;SHT31;68755;51.984;5.646;2023-04-24T00:47:50;12.8;72.4
79301;SHT31;68755;51.984;5.646;2023-04-24T00:50:21;12.8;72.6
79301;SHT31;68755;51.984;5.646;2023-04-24T00:52:51;12.7;72.6
79301;SHT31;68755;51.984;5.646;2023-04-24T00:55:21;12.7;72.4
79301;SHT31;68755;51.984;5.646;2023-04-24T00:57:50;12.7;72.5
79301;SHT31;68755;51.984;5.646;2023-04-24T01:00:20;12.7;72.7
79301;SHT31;68755;51.984;5.646;2023-04-24T01:02:52;12.7;72.2
79301;SHT31;68755;51.984;5.646;2023-04-24T01:05:23;12.7;72.2
79301;SHT31;68755;51.984;5.646;2023-04-24T01:07:52;12.6;72.2
79301;SHT31;68755;51.984;5.646;2023-04-24T01:10:24;12.6;71.8
79301;SHT31;68755;51.984;5.646;2023-04-24T01:12:55;12.6;71.6
79301;SHT31;68755;51.984;5.646;2023-04-24T01:15:25;12.6;71.8
79301;SHT31;68755;51.984;5.646;2023-04-24T01:17:54;12.6;71.5
79301;SHT31;68755;51.984;5.646;2023-04-24T01:20:25;12.6;71.4
79301;SHT31;68755;51.984;5.646;2023-04-24T01:22:56;12.6;71.7
79301;SHT31;68755;51.984;5.646;2023-04-24T01:25:28;12.5;71.8
79301;SHT31;68755;51.984;5.646;2023-04-24T01:27:58;12.5;72.1
79301;SHT31;68755;51.984;5.646;2023-04-24T01:30:28;12.5;72.2
79301;SHT31;68755;51.984;5.646;2023-04-24T01:32:58;12.5;72.6
79301;SHT31;68755;51.984;5.646;2023-04-24T01:35:28;12.5;72.9
79301;SHT31;68755;51.984;5.646;2023-04-24T01:37:58;12.5;72.9
79301;SHT31;68755;51.984;5.646;2023-04-24T01:40:28;12.5;73.1
79301;SHT31;68755;51.984;5.646;2023-04-24T01:42:58;12.5;73.3
79301;SHT31;68755;51.984;5.646;2023-04-24T01:45:28;12.5;73.2
79301;SHT31;68755;51.984;5.646;2023-04-24T01:47:58;12.5;73.4
79301;SHT31;68755;51.984;5.646;2023-04-24T01:50:28;12.5;73.5
79301;SHT31;68755;51.984;5.646;2023-04-24T01:52:59;12.5;73.9
79301;SHT31;68755;51.984;5.646;2023-04-24T01:55:29;12.5;74.0
79301;SHT31;68755;51.984;5.646;2023-04-24T01:57:59;12.5;74.0
79301;SHT31;68755;51.984;5.646;2023-04-24T02:00:29;12.5;74.3
79301;SHT31;68755;51.984;5.646;2023-04-24T02:02:59;12.5;74.4
79301;SHT31;68755;51.984;5.646;2023-04-24T02:05:29;12.5;74.4
79301;SHT31;68755;51.984;5.646;2023-04-24T02:08:00;12.5;74.5
79301;SHT31;68755;51.984;5.646;2023-04-24T02:10:30;12.5;74.4
79301;SHT31;68755;51.984;5.646;2023-04-24T02:12:59;12.5;74.5
79301;SHT31;68755;51.984;5.646;2023-04-24T02:15:29;12.6;74.3
79301;SHT31;68755;51.984;5.646;2023-04-24T02:17:59;12.6;74.3
79301;SHT31;68755;51.984;5.646;2023-04-24T02:20:29;12.6;74.2
79301;SHT31;68755;51.984;5.646;2023-04-24T02:23:01;12.6;74.1
79301;SHT31;68755;51.984;5.646;2023-04-24T02:25:31;12.6;74.3
79301;SHT31;68755;51.984;5.646;2023-04-24T02:28:00;12.6;74.5
79301;SHT31;68755;51.984;5.646;2023-04-24T02:30:30;12.6;74.7
79301;SHT31;68755;51.984;5.646;2023-04-24T02:33:01;12.6;74.6
79301;SHT31;68755;51.984;5.646;2023-04-24T02:35:31;12.6;74.8
79301;SHT31;68755;51.984;5.646;2023-04-24T02:38:00;12.6;75.0
79301;SHT31;68755;51.984;5.646;2023-04-24T02:40:30;12.6;74.6
79301;SHT31;68755;51.984;5.646;2023-04-24T02:43:00;12.6;74.1
79301;SHT31;68755;51.984;5.646;2023-04-24T02:45:30;12.6;73.8
79301;SHT31;68755;51.984;5.646;2023-04-24T02:48:02;12.6;73.8
79301;SHT31;68755;51.984;5.646;2023-04-24T02:50:31;12.6;73.7
79301;SHT31;68755;51.984;5.646;2023-04-24T02:53:01;12.6;73.6
79301;SHT31;68755;51.984;5.646;2023-04-24T02:55:30;12.6;73.9
79301;SHT31;68755;51.984;5.646;2023-04-24T02:58:00;12.5;73.7
79301;SHT31;68755;51.984;5.646;2023-04-24T03:00:30;12.5;73.8
79301;SHT31;68755;51.984;5.646;2023-04-24T03:02:59;12.5;73.7
79301;SHT31;68755;51.984;5.646;2023-04-24T03:05:29;12.5;73.7
79301;SHT31;68755;51.984;5.646;2023-04-24T03:07:59;12.5;73.8
79301;SHT31;68755;51.984;5.646;2023-04-24T03:10:28;12.5;74.2
79301;SHT31;68755;51.984;5.646;2023-04-24T03:12:58;12.4;74.2
79301;SHT31;68755;51.984;5.646;2023-04-24T03:15:28;12.4;74.5
79301;SHT31;68755;51.984;5.646;2023-04-24T03:17:57;12.4;74.5
79301;SHT31;68755;51.984;5.646;2023-04-24T03:20:28;12.4;74.5
79301;SHT31;68755;51.984;5.646;2023-04-24T03:22:57;12.4;74.7
79301;SHT31;68755;51.984;5.646;2023-04-24T03:25:27;12.4;74.6
79301;SHT31;68755;51.984;5.646;2023-04-24T03:27:56;12.4;74.6
79301;SHT31;68755;51.984;5.646;2023-04-24T03:30:26;12.4;74.6
79301;SHT31;68755;51.984;5.646;2023-04-24T03:32:55;12.4;74.4
79301;SHT31;68755;51.984;5.646;2023-04-24T03:35:25;12.4;74.4
79301;SHT31;68755;51.984;5.646;2023-04-24T03:37:54;12.4;74.5
79301;SHT31;68755;51.984;5.646;2023-04-24T03:40:24;12.4;74.6
79301;SHT31;68755;51.984;5.646;2023-04-24T03:42:56;12.4;74.4
79301;SHT31;68755;51.984;5.646;2023-04-24T03:45:25;12.4;74.7
79301;SHT31;68755;51.984;5.646;2023-04-24T03:47:55;12.4;74.7
79301;SHT31;68755;51.984;5.646;2023-04-24T03:50:24;12.4;74.8
79301;SHT31;68755;51.984;5.646;2023-04-24T03:52:56;12.4;74.8
79301;SHT31;68755;51.984;5.646;2023-04-24T03:55:25;12.4;75.0
79301;SHT31;68755;51.984;5.646;2023-04-24T03:57:55;12.4;75.1
79301;SHT31;68755;51.984;5.646;2023-04-24T04:00:24;12.4;74.6
79301;SHT31;68755;51.984;5.646;2023-04-24T04:02:55;12.4;74.3
79301;SHT31;68755;51.984;5.646;2023-04-24T04:05:24;12.4;74.9
79301;SHT31;68755;51.984;5.646;2023-04-24T04:07:54;12.4;74.3
79301;SHT31;68755;51.984;5.646;2023-04-24T04:10:23;12.4;74.0
79301;SHT31;68755;51.984;5.646;2023-04-24T04:12:53;12.4;73.9
79301;SHT31;68755;51.984;5.646;2023-04-24T04:15:22;12.3;73.9
79301;SHT31;68755;51.984;5.646;2023-04-24T04:17:53;12.3;74.1
79301;SHT31;68755;51.984;5.646;2023-04-24T04:20:23;12.4;73.6
79301;SHT31;68755;51.984;5.646;2023-04-24T04:22:53;12.4;73.4
79301;SHT31;68755;51.984;5.646;2023-04-24T04:25:22;12.4;73.4
79301;SHT31;68755;51.984;5.646;2023-04-24T04:27:52;12.4;73.4
79301;SHT31;68755;51.984;5.646;2023-04-24T04:30:22;12.4;73.5
79301;SHT31;68755;51.984;5.646;2023-04-24T04:32:51;12.4;73.5
79301;SHT31;68755;51.984;5.646;2023-04-24T04:35:21;12.4;73.3
79301;SHT31;68755;51.984;5.646;2023-04-24T04:37:52;12.4;73.4
79301;SHT31;68755;51.984;5.646;2023-04-24T04:40:24;12.4;73.1
79301;SHT31;68755;51.984;5.646;2023-04-24T04:42:54;12.4;73.3
79301;SHT31;68755;51.984;5.646;2023-04-24T04:45:24;12.4;73.2
79301;SHT31;68755;51.984;5.646;2023-04-24T04:47:55;12.4;73.0
79301;SHT31;68755;51.984;5.646;2023-04-24T04:50:24;12.3;73.1
79301;SHT31;68755;51.984;5.646;2023-04-24T04:52:54;12.3;73.3
79301;SHT31;68755;51.984;5.646;2023-04-24T04:55:24;12.2;74.0
79301;SHT31;68755;51.984;5.646;2023-04-24T04:57:53;12.2;74.3
79301;SHT31;68755;51.984;5.646;2023-04-24T05:00:26;12.2;74.2
79301;SHT31;68755;51.984;5.646;2023-04-24T05:03:01;12.2;74.0
79301;SHT31;68755;51.984;5.646;2023-04-24T05:05:32;12.2;74.4
79301;SHT31;68755;51.984;5.646;2023-04-24T05:08:02;12.2;74.3
79301;SHT31;68755;51.984;5.646;2023-04-24T05:10:34;12.2;74.3
79301;SHT31;68755;51.984;5.646;2023-04-24T05:13:04;12.2;74.1
79301;SHT31;68755;51.984;5.646;2023-04-24T05:15:34;12.2;73.9
79301;SHT31;68755;51.984;5.646;2023-04-24T05:18:03;12.2;74.1
79301;SHT31;68755;51.984;5.646;2023-04-24T05:20:33;12.2;73.9
79301;SHT31;68755;51.984;5.646;2023-04-24T05:23:02;12.2;74.1
79301;SHT31;68755;51.984;5.646;2023-04-24T05:25:32;12.2;74.6
79301;SHT31;68755;51.984;5.646;2023-04-24T05:28:02;12.2;74.2
79301;SHT31;68755;51.984;5.646;2023-04-24T05:30:33;12.2;74.6
79301;SHT31;68755;51.984;5.646;2023-04-24T05:33:02;12.2;74.3
79301;SHT31;68755;51.984;5.646;2023-04-24T05:35:32;12.2;74.4
79301;SHT31;68755;51.984;5.646;2023-04-24T05:38:02;12.2;74.4
79301;SHT31;68755;51.984;5.646;2023-04-24T05:40:31;12.2;74.8
79301;SHT31;68755;51.984;5.646;2023-04-24T05:43:01;12.2;75.0
79301;SHT31;68755;51.984;5.646;2023-04-24T05:45:31;12.2;74.8
79301;SHT31;68755;51.984;5.646;2023-04-24T05:48:03;12.2;74.7
79301;SHT31;68755;51.984;5.646;2023-04-24T05:50:33;12.2;74.8
79301;SHT31;68755;51.984;5.646;2023-04-24T05:53:03;12.2;74.5
79301;SHT31;68755;51.984;5.646;2023-04-24T05:55:36;12.2;74.9
79301;SHT31;68755;51.984;5.646;2023-04-24T05:58:06;12.2;75.1
79301;SHT31;68755;51.984;5.646;2023-04-24T06:00:36;12.2;75.1
79301;SHT31;68755;51.984;5.646;2023-04-24T06:03:07;12.3;75.5
79301;SHT31;68755;51.984;5.646;2023-04-24T06:05:36;12.3;75.3
79301;SHT31;68755;51.984;5.646;2023-04-24T06:08:06;12.3;75.4
79301;SHT31;68755;51.984;5.646;2023-04-24T06:10:35;12.3;75.3
79301;SHT31;68755;51.984;5.646;2023-04-24T06:13:05;12.3;75.8
79301;SHT31;68755;51.984;5.646;2023-04-24T06:15:35;12.3;76.1
79301;SHT31;68755;51.984;5.646;2023-04-24T06:18:04;12.3;75.7
79301;SHT31;68755;51.984;5.646;2023-04-24T06:20:34;12.3;76.0
79301;SHT31;68755;51.984;5.646;2023-04-24T06:23:03;12.3;76.0
79301;SHT31;68755;51.984;5.646;2023-04-24T06:25:34;12.3;76.2
79301;SHT31;68755;51.984;5.646;2023-04-24T06:28:03;12.3;75.2
79301;SHT31;68755;51.984;5.646;2023-04-24T06:30:33;12.4;75.2
79301;SHT31;68755;51.984;5.646;2023-04-24T06:33:03;12.4;75.0
79301;SHT31;68755;51.984;5.646;2023-04-24T06:35:32;12.3;74.9
79301;SHT31;68755;51.984;5.646;2023-04-24T06:38:04;12.3;75.2
79301;SHT31;68755;51.984;5.646;2023-04-24T06:40:33;12.3;75.1
79301;SHT31;68755;51.984;5.646;2023-04-24T06:43:03;12.3;75.4
79301;SHT31;68755;51.984;5.646;2023-04-24T06:45:35;12.3;75.1
79301;SHT31;68755;51.984;5.646;2023-04-24T06:48:06;12.3;75.1
79301;SHT31;68755;51.984;5.646;2023-04-24T06:50:36;12.3;75.2
79301;SHT31;68755;51.984;5.646;2023-04-24T06:53:05;12.2;74.7
79301;SHT31;68755;51.984;5.646;2023-04-24T06:55:36;12.2;74.8
79301;SHT31;68755;51.984;5.646;2023-04-24T06:58:05;12.2;74.5
79301;SHT31;68755;51.984;5.646;2023-04-24T07:00:35;12.2;74.4
79301;SHT31;68755;51.984;5.646;2023-04-24T07:03:05;12.1;74.9
79301;SHT31;68755;51.984;5.646;2023-04-24T07:05:34;12.1;74.9
79301;SHT31;68755;51.984;5.646;2023-04-24T07:08:05;12.1;74.7
79301;SHT31;68755;51.984;5.646;2023-04-24T07:10:39;12.1;75.3
79301;SHT31;68755;51.984;5.646;2023-04-24T07:13:08;12.1;75.0
79301;SHT31;68755;51.984;5.646;2023-04-24T07:15:38;12.0;75.1
79301;SHT31;68755;51.984;5.646;2023-04-24T07:18:08;12.0;74.5
79301;SHT31;68755;51.984;5.646;2023-04-24T07:20:38;12.0;74.6
79301;SHT31;68755;51.984;5.646;2023-04-24T07:23:08;12.0;74.3
79301;SHT31;68755;51.984;5.646;2023-04-24T07:25:38;12.0;74.4
79301;SHT31;68755;51.984;5.646;2023-04-24T07:28:08;11.9;74.4
79301;SHT31;68755;51.984;5.646;2023-04-24T07:30:37;11.9;74.2
79301;SHT31;68755;51.984;5.646;2023-04-24T07:33:07;11.9;73.7
79301;SHT31;68755;51.984;5.646;2023-04-24T07:35:40;11.9;73.6
79301;SHT31;68755;51.984;5.646;2023-04-24T07:38:10;11.8;74.3
79301;SHT31;68755;51.984;5.646;2023-04-24T07:40:40;11.8;74.5
79301;SHT31;68755;51.984;5.646;2023-04-24T07:43:09;11.8;73.2
79301;SHT31;68755;51.984;5.646;2023-04-24T07:45:39;11.7;74.1
79301;SHT31;68755;51.984;5.646;2023-04-24T07:48:09;11.7;73.3
79301;SHT31;68755;51.984;5.646;2023-04-24T07:50:42;11.6;74.1
79301;SHT31;68755;51.984;5.646;2023-04-24T07:53:11;11.6;74.5
79301;SHT31;68755;51.984;5.646;2023-04-24T07:55:41;11.6;74.0
79301;SHT31;68755;51.984;5.646;2023-04-24T07:58:13;11.5;74.6
79301;SHT31;68755;51.984;5.646;2023-04-24T08:00:42;11.5;75.4
79301;SHT31;68755;51.984;5.646;2023-04-24T08:03:13;11.5;75.6
79301;SHT31;68755;51.984;5.646;2023-04-24T08:05:45;11.5;74.9
79301;SHT31;68755;51.984;5.646;2023-04-24T08:08:15;11.5;75.6
79301;SHT31;68755;51.984;5.646;2023-04-24T08:10:45;11.5;75.5
79301;SHT31;68755;51.984;5.646;2023-04-24T08:13:14;11.5;75.5
79301;SHT31;68755;51.984;5.646;2023-04-24T08:15:44;11.5;75.7
79301;SHT31;68755;51.984;5.646;2023-04-24T08:18:13;11.5;75.6
79301;SHT31;68755;51.984;5.646;2023-04-24T08:20:43;11.5;75.9
79301;SHT31;68755;51.984;5.646;2023-04-24T08:23:15;11.5;76.0
79301;SHT31;68755;51.984;5.646;2023-04-24T08:25:44;11.5;75.7
79301;SHT31;68755;51.984;5.646;2023-04-24T08:28:14;11.5;76.0
79301;SHT31;68755;51.984;5.646;2023-04-24T08:30:47;11.6;75.9
79301;SHT31;68755;51.984;5.646;2023-04-24T08:33:22;11.6;76.0
79301;SHT31;68755;51.984;5.646;2023-04-24T08:35:52;11.6;76.1
79301;SHT31;68755;51.984;5.646;2023-04-24T08:38:22;11.6;75.5
79301;SHT31;68755;51.984;5.646;2023-04-24T08:40:54;11.6;75.6
79301;SHT31;68755;51.984;5.646;2023-04-24T08:43:25;11.6;75.3
79301;SHT31;68755;51.984;5.646;2023-04-24T08:45:56;11.6;75.2
79301;SHT31;68755;51.984;5.646;2023-04-24T08:48:27;11.6;73.6
79301;SHT31;68755;51.984;5.646;2023-04-24T08:50:57;11.6;74.4
79301;SHT31;68755;51.984;5.646;2023-04-24T08:53:30;11.6;74.3
79301;SHT31;68755;51.984;5.646;2023-04-24T08:56:01;11.6;74.8
79301;SHT31;68755;51.984;5.646;2023-04-24T08:58:31;11.6;75.2
79301;SHT31;68755;51.984;5.646;2023-04-24T09:01:01;11.6;75.2
79301;SHT31;68755;51.984;5.646;2023-04-24T09:03:33;11.6;74.8
79301;SHT31;68755;51.984;5.646;2023-04-24T09:06:04;11.6;74.3
79301;SHT31;68755;51.984;5.646;2023-04-24T09:08:36;11.6;73.6
79301;SHT31;68755;51.984;5.646;2023-04-24T09:11:06;11.6;74.4
79301;SHT31;68755;51.984;5.646;2023-04-24T09:13:35;11.7;72.9
79301;SHT31;68755;51.984;5.646;2023-04-24T09:16:05;11.7;72.7
79301;SHT31;68755;51.984;5.646;2023-04-24T09:18:35;11.7;71.3
79301;SHT31;68755;51.984;5.646;2023-04-24T09:21:08;11.7;72.4
79301;SHT31;68755;51.984;5.646;2023-04-24T09:23:38;11.7;72.9
79301;SHT31;68755;51.984;5.646;2023-04-24T09:26:09;11.7;72.7
79301;SHT31;68755;51.984;5.646;2023-04-24T09:28:41;11.7;72.2
79301;SHT31;68755;51.984;5.646;2023-04-24T09:31:14;11.7;70.9
79301;SHT31;68755;51.984;5.646;2023-04-24T09:33:53;11.7;71.1
79301;SHT31;68755;51.984;5.646;2023-04-24T09:36:34;11.7;69.8
79301;SHT31;68755;51.984;5.646;2023-04-24T09:39:06;11.7;71.1
79301;SHT31;68755;51.984;5.646;2023-04-24T09:41:44;11.8;69.9
79301;SHT31;68755;51.984;5.646;2023-04-24T09:44:16;11.8;70.1
79301;SHT31;68755;51.984;5.646;2023-04-24T09:46:50;11.8;70.0
79301;SHT31;68755;51.984;5.646;2023-04-24T09:49:23;11.8;69.8
79301;SHT31;68755;51.984;5.646;2023-04-24T09:52:04;11.8;69.9
79301;SHT31;68755;51.984;5.646;2023-04-24T09:54:34;11.8;70.4
79301;SHT31;68755;51.984;5.646;2023-04-24T09:57:07;11.8;70.3
79301;SHT31;68755;51.984;5.646;2023-04-24T09:59:42;11.8;71.3
79301;SHT31;68755;51.984;5.646;2023-04-24T10:02:19;11.8;70.4
79301;SHT31;68755;51.984;5.646;2023-04-24T10:04:56;11.9;70.9
79301;SHT31;68755;51.984;5.646;2023-04-24T10:07:27;11.9;70.5
79301;SHT31;68755;51.984;5.646;2023-04-24T10:09:57;12.0;70.2
79301;SHT31;68755;51.984;5.646;2023-04-24T10:12:29;12.0;71.0
79301;SHT31;68755;51.984;5.646;2023-04-24T10:15:01;12.1;71.4
79301;SHT31;68755;51.984;5.646;2023-04-24T10:17:34;12.2;71.9
79301;SHT31;68755;51.984;5.646;2023-04-24T10:20:08;12.2;70.6
79301;SHT31;68755;51.984;5.646;2023-04-24T10:22:38;12.3;68.4
79301;SHT31;68755;51.984;5.646;2023-04-24T10:25:09;12.4;67.3
79301;SHT31;68755;51.984;5.646;2023-04-24T10:27:39;12.4;65.9
79301;SHT31;68755;51.984;5.646;2023-04-24T10:30:12;12.4;65.5
79301;SHT31;68755;51.984;5.646;2023-04-24T10:32:42;12.4;65.0
79301;SHT31;68755;51.984;5.646;2023-04-24T10:35:13;12.4;64.9
79301;SHT31;68755;51.984;5.646;2023-04-24T10:37:46;12.5;65.0
79301;SHT31;68755;51.984;5.646;2023-04-24T10:40:19;12.5;64.1
79301;SHT31;68755;51.984;5.646;2023-04-24T10:42:53;12.5;65.7
79301;SHT31;68755;51.984;5.646;2023-04-24T10:45:24;12.5;65.0
79301;SHT31;68755;51.984;5.646;2023-04-24T10:47:57;12.5;64.8
79301;SHT31;68755;51.984;5.646;2023-04-24T10:50:30;12.5;64.1
79301;SHT31;68755;51.984;5.646;2023-04-24T10:53:14;12.5;64.3
79301;SHT31;68755;51.984;5.646;2023-04-24T10:55:45;12.5;65.2
79301;SHT31;68755;51.984;5.646;2023-04-24T10:58:16;12.4;65.4
79301;SHT31;68755;51.984;5.646;2023-04-24T11:00:57;12.4;65.5
79301;SHT31;68755;51.984;5.646;2023-04-24T11:03:30;12.4;66.1
79301;SHT31;68755;51.984;5.646;2023-04-24T11:06:02;12.4;65.7
79301;SHT31;68755;51.984;5.646;2023-04-24T11:08:37;12.5;64.7
79301;SHT31;68755;51.984;5.646;2023-04-24T11:11:12;12.5;65.3
79301;SHT31;68755;51.984;5.646;2023-04-24T11:14:06;12.5;64.7
79301;SHT31;68755;51.984;5.646;2023-04-24T11:16:40;12.6;65.1
79301;SHT31;68755;51.984;5.646;2023-04-24T11:19:25;12.6;65.2
79301;SHT31;68755;51.984;5.646;2023-04-24T11:21:59;12.7;65.3
79301;SHT31;68755;51.984;5.646;2023-04-24T11:24:48;12.7;64.3
79301;SHT31;68755;51.984;5.646;2023-04-24T11:27:16;12.8;65.6
79301;SHT31;68755;51.984;5.646;2023-04-24T11:29:48;12.9;65.0
79301;SHT31;68755;51.984;5.646;2023-04-24T11:32:23;13.0;65.6
79301;SHT31;68755;51.984;5.646;2023-04-24T11:34:56;13.1;64.8
79301;SHT31;68755;51.984;5.646;2023-04-24T11:37:27;13.1;64.0
79301;SHT31;68755;51.984;5.646;2023-04-24T11:39:58;13.1;63.6
79301;SHT31;68755;51.984;5.646;2023-04-24T11:42:29;13.2;64.5
79301;SHT31;68755;51.984;5.646;2023-04-24T11:45:07;13.2;61.7
79301;SHT31;68755;51.984;5.646;2023-04-24T11:47:38;13.2;61.2
79301;SHT31;68755;51.984;5.646;2023-04-24T11:50:11;13.1;62.7
79301;SHT31;68755;51.984;5.646;2023-04-24T11:52:42;13.1;61.0
79301;SHT31;68755;51.984;5.646;2023-04-24T11:55:25;13.1;62.1
79301;SHT31;68755;51.984;5.646;2023-04-24T11:57:56;13.0;62.7
79301;SHT31;68755;51.984;5.646;2023-04-24T12:00:28;12.9;63.6
79301;SHT31;68755;51.984;5.646;2023-04-24T12:03:08;12.9;64.1
79301;SHT31;68755;51.984;5.646;2023-04-24T12:05:39;12.8;63.6
79301;SHT31;68755;51.984;5.646;2023-04-24T12:08:11;12.8;64.9
79301;SHT31;68755;51.984;5.646;2023-04-24T12:10:41;12.7;64.7
79301;SHT31;68755;51.984;5.646;2023-04-24T12:13:11;12.7;65.6
79301;SHT31;68755;51.984;5.646;2023-04-24T12:15:43;12.7;66.5
79301;SHT31;68755;51.984;5.646;2023-04-24T12:18:14;12.7;64.8
79301;SHT31;68755;51.984;5.646;2023-04-24T12:20:45;12.7;65.5
79301;SHT31;68755;51.984;5.646;2023-04-24T12:23:15;12.7;64.4
79301;SHT31;68755;51.984;5.646;2023-04-24T12:25:45;12.7;64.4
79301;SHT31;68755;51.984;5.646;2023-04-24T12:28:16;12.8;64.4
79301;SHT31;68755;51.984;5.646;2023-04-24T12:30:47;12.8;64.3
79301;SHT31;68755;51.984;5.646;2023-04-24T12:33:20;12.8;62.2
79301;SHT31;68755;51.984;5.646;2023-04-24T12:35:52;12.9;62.5
79301;SHT31;68755;51.984;5.646;2023-04-24T12:38:25;12.9;62.5
79301;SHT31;68755;51.984;5.646;2023-04-24T12:41:07;12.9;62.7
79301;SHT31;68755;51.984;5.646;2023-04-24T12:43:37;12.9;62.5
79301;SHT31;68755;51.984;5.646;2023-04-24T12:46:07;12.9;62.0
79301;SHT31;68755;51.984;5.646;2023-04-24T12:48:37;12.9;62.0
79301;SHT31;68755;51.984;5.646;2023-04-24T12:51:06;12.9;63.3
79301;SHT31;68755;51.984;5.646;2023-04-24T12:53:36;12.9;62.4
79301;SHT31;68755;51.984;5.646;2023-04-24T12:56:06;13.0;62.4
79301;SHT31;68755;51.984;5.646;2023-04-24T12:58:37;13.0;62.7
79301;SHT31;68755;51.984;5.646;2023-04-24T13:01:07;13.0;61.8
79301;SHT31;68755;51.984;5.646;2023-04-24T13:03:37;13.0;62.3
79301;SHT31;68755;51.984;5.646;2023-04-24T13:06:07;13.0;62.2
79301;SHT31;68755;51.984;5.646;2023-04-24T13:08:36;13.1;60.8
79301;SHT31;68755;51.984;5.646;2023-04-24T13:11:06;13.1;60.8
79301;SHT31;68755;51.984;5.646;2023-04-24T13:13:36;13.1;60.2
79301;SHT31;68755;51.984;5.646;2023-04-24T13:16:05;13.1;59.8
79301;SHT31;68755;51.984;5.646;2023-04-24T13:18:35;13.1;59.9
79301;SHT31;68755;51.984;5.646;2023-04-24T13:21:05;13.1;59.1
79301;SHT31;68755;51.984;5.646;2023-04-24T13:23:34;13.1;61.0
79301;SHT31;68755;51.984;5.646;2023-04-24T13:26:04;13.1;60.7
79301;SHT31;68755;51.984;5.646;2023-04-24T13:28:35;13.1;60.7
79301;SHT31;68755;51.984;5.646;2023-04-24T13:31:05;13.1;60.2
79301;SHT31;68755;51.984;5.646;2023-04-24T13:33:37;13.2;60.9
79301;SHT31;68755;51.984;5.646;2023-04-24T13:36:09;13.2;60.6
79301;SHT31;68755;51.984;5.646;2023-04-24T13:38:39;13.2;60.6
79301;SHT31;68755;51.984;5.646;2023-04-24T13:41:08;13.2;60.2
79301;SHT31;68755;51.984;5.646;2023-04-24T13:43:38;13.2;58.7
79301;SHT31;68755;51.984;5.646;2023-04-24T13:46:09;13.3;58.5
79301;SHT31;68755;51.984;5.646;2023-04-24T13:48:38;13.3;59.7
79301;SHT31;68755;51.984;5.646;2023-04-24T13:51:08;13.3;57.1
79301;SHT31;68755;51.984;5.646;2023-04-24T13:53:38;13.4;56.3
79301;SHT31;68755;51.984;5.646;2023-04-24T13:56:08;13.4;57.9
79301;SHT31;68755;51.984;5.646;2023-04-24T13:58:38;13.4;56.7
79301;SHT31;68755;51.984;5.646;2023-04-24T14:01:08;13.5;57.1
79301;SHT31;68755;51.984;5.646;2023-04-24T14:03:40;13.5;56.9
79301;SHT31;68755;51.984;5.646;2023-04-24T14:06:10;13.5;56.9
79301;SHT31;68755;51.984;5.646;2023-04-24T14:08:40;13.5;56.8
79301;SHT31;68755;51.984;5.646;2023-04-24T14:11:09;13.5;56.0
79301;SHT31;68755;51.984;5.646;2023-04-24T14:13:41;13.5;57.4
79301;SHT31;68755;51.984;5.646;2023-04-24T14:16:11;13.5;55.5
79301;SHT31;68755;51.984;5.646;2023-04-24T14:18:41;13.6;53.4
79301;SHT31;68755;51.984;5.646;2023-04-24T14:21:11;13.5;53.9
79301;SHT31;68755;51.984;5.646;2023-04-24T14:23:40;13.5;53.3
79301;SHT31;68755;51.984;5.646;2023-04-24T14:26:10;13.5;52.9
79301;SHT31;68755;51.984;5.646;2023-04-24T14:28:39;13.5;54.8
79301;SHT31;68755;51.984;5.646;2023-04-24T14:31:09;13.5;54.8
79301;SHT31;68755;51.984;5.646;2023-04-24T14:33:38;13.5;54.3
79301;SHT31;68755;51.984;5.646;2023-04-24T14:36:10;13.5;55.6
79301;SHT31;68755;51.984;5.646;2023-04-24T14:38:40;13.5;54.7
79301;SHT31;68755;51.984;5.646;2023-04-24T14:41:10;13.5;54.6
79301;SHT31;68755;51.984;5.646;2023-04-24T14:43:40;13.6;54.4
79301;SHT31;68755;51.984;5.646;2023-04-24T14:46:11;13.6;53.5
79301;SHT31;68755;51.984;5.646;2023-04-24T14:48:41;13.6;53.6
79301;SHT31;68755;51.984;5.646;2023-04-24T14:51:11;13.6;54.1
79301;SHT31;68755;51.984;5.646;2023-04-24T14:53:40;13.6;54.1
79301;SHT31;68755;51.984;5.646;2023-04-24T14:56:10;13.6;53.7
79301;SHT31;68755;51.984;5.646;2023-04-24T14:58:40;13.6;54.3
79301;SHT31;68755;51.984;5.646;2023-04-24T15:01:10;13.6;53.8
79301;SHT31;68755;51.984;5.646;2023-04-24T15:03:40;13.6;54.8
79301;SHT31;68755;51.984;5.646;2023-04-24T15:06:10;13.6;53.8
79301;SHT31;68755;51.984;5.646;2023-04-24T15:08:40;13.6;54.4
79301;SHT31;68755;51.984;5.646;2023-04-24T15:11:10;13.6;54.4
79301;SHT31;68755;51.984;5.646;2023-04-24T15:13:40;13.6;54.7
79301;SHT31;68755;51.984;5.646;2023-04-24T15:16:10;13.5;53.6
79301;SHT31;68755;51.984;5.646;2023-04-24T15:18:39;13.5;53.2
79301;SHT31;68755;51.984;5.646;2023-04-24T15:21:09;13.5;53.0
79301;SHT31;68755;51.984;5.646;2023-04-24T15:23:40;13.4;53.1
79301;SHT31;68755;51.984;5.646;2023-04-24T15:26:10;13.4;53.7
79301;SHT31;68755;51.984;5.646;2023-04-24T15:28:39;13.4;56.2
79301;SHT31;68755;51.984;5.646;2023-04-24T15:31:09;13.4;56.8
79301;SHT31;68755;51.984;5.646;2023-04-24T15:33:39;13.4;55.5
79301;SHT31;68755;51.984;5.646;2023-04-24T15:36:09;13.4;56.0
79301;SHT31;68755;51.984;5.646;2023-04-24T15:38:39;13.4;56.8
79301;SHT31;68755;51.984;5.646;2023-04-24T15:41:08;13.3;56.7
79301;SHT31;68755;51.984;5.646;2023-04-24T15:43:38;13.3;55.0
79301;SHT31;68755;51.984;5.646;2023-04-24T15:46:09;13.3;54.7
79301;SHT31;68755;51.984;5.646;2023-04-24T15:48:41;13.3;55.7
79301;SHT31;68755;51.984;5.646;2023-04-24T15:51:11;13.3;55.3
79301;SHT31;68755;51.984;5.646;2023-04-24T15:53:41;13.3;55.3
79301;SHT31;68755;51.984;5.646;2023-04-24T15:56:11;13.4;55.6
79301;SHT31;68755;51.984;5.646;2023-04-24T15:58:41;13.4;55.8
79301;SHT31;68755;51.984;5.646;2023-04-24T16:01:11;13.4;55.8
79301;SHT31;68755;51.984;5.646;2023-04-24T16:03:40;13.4;56.8
79301;SHT31;68755;51.984;5.646;2023-04-24T16:06:10;13.4;56.3
79301;SHT31;68755;51.984;5.646;2023-04-24T16:08:40;13.4;56.8
79301;SHT31;68755;51.984;5.646;2023-04-24T16:11:12;13.3;56.1
79301;SHT31;68755;51.984;5.646;2023-04-24T16:13:41;13.3;54.9
79301;SHT31;68755;51.984;5.646;2023-04-24T16:16:11;13.3;55.4
79301;SHT31;68755;51.984;5.646;2023-04-24T16:18:40;13.3;52.4
79301;SHT31;68755;51.984;5.646;2023-04-24T16:21:10;13.3;52.4
79301;SHT31;68755;51.984;5.646;2023-04-24T16:23:40;13.2;53.0